sensor_id;sensor_type;location;lat;lon;timestamp;P1;durP1;ratioP1;P2;durP2;ratioP2
4309;SDS011;2168;53.576;9.980;2023-06-19T00:00:22;3.93;;;3.93;;
4309;SDS011;2168;53.576;9.980;2023-06-19T00:02:47;3.63;;;3.63;;
4309;SDS011;2168;53.576;9.980;2023-06-19T00:05:13;3.67;;;3.67;;
4309;SDS011;2168;53.576;9.980;2023-06-19T00:07:38;3.80;;;3.80;;
4309;SDS011;2168;53.576;9.980;2023-06-19T00:10:04;3.70;;;3.70;;
4309;SDS011;2168;53.576;9.980;2023-06-19T00:12:29;3.60;;;3.60;;
4309;SDS011;2168;53.576;9.980;2023-06-19T00:14:55;3.80;;;3.80;;
4309;SDS011;2168;53.576;9.980;2023-06-19T00:17:20;3.67;;;3.67;;
4309;SDS011;2168;53.576;9.980;2023-06-19T00:19:45;3.80;;;3.80;;
4309;SDS011;2168;53.576;9.980;2023-06-19T00:22:11;3.70;;;3.70;;
4309;SDS011;2168;53.576;9.980;2023-06-19T00:24:37;4.00;;;4.00;;
4309;SDS011;2168;53.576;9.980;2023-06-19T00:27:02;3.70;;;3.70;;
4309;SDS011;2168;53.576;9.980;2023-06-19T00:29:28;4.03;;;4.03;;
4309;SDS011;2168;53.576;9.980;2023-06-19T00:31:53;3.90;;;3.90;;
4309;SDS011;2168;53.576;9.980;2023-06-19T00:34:18;3.90;;;3.90;;
4309;SDS011;2168;53.576;9.980;2023-06-19T00:36:44;3.70;;;3.70;;
4309;SDS011;2168;53.576;9.980;2023-06-19T00:39:09;3.90;;;3.90;;
4309;SDS011;2168;53.576;9.980;2023-06-19T00:41:35;3.70;;;3.70;;
4309;SDS011;2168;53.576;9.980;2023-06-19T00:44:00;3.87;;;3.87;;
4309;SDS011;2168;53.576;9.980;2023-06-19T00:46:25;3.80;;;3.80;;
4309;SDS011;2168;53.576;9.980;2023-06-19T00:48:50;4.17;;;4.17;;
4309;SDS011;2168;53.576;9.980;2023-06-19T00:51:15;3.80;;;3.80;;
4309;SDS011;2168;53.576;9.980;2023-06-19T00:53:41;3.67;;;3.67;;
4309;SDS011;2168;53.576;9.980;2023-06-19T00:56:06;3.97;;;3.97;;
4309;SDS011;2168;53.576;9.980;2023-06-19T00:58:31;3.50;;;3.50;;
4309;SDS011;2168;53.576;9.980;2023-06-19T01:00:57;3.80;;;3.80;;
4309;SDS011;2168;53.576;9.980;2023-06-19T01:03:22;3.90;;;3.90;;
4309;SDS011;2168;53.576;9.980;2023-06-19T01:05:47;3.83;;;3.83;;
4309;SDS011;2168;53.576;9.980;2023-06-19T01:10:57;3.70;;;3.70;;
4309;SDS011;2168;53.576;9.980;2023-06-19T01:13:31;3.57;;;3.57;;
4309;SDS011;2168;53.576;9.980;2023-06-19T01:15:59;3.50;;;3.50;;
4309;SDS011;2168;53.576;9.980;2023-06-19T01:18:26;3.70;;;3.70;;
4309;SDS011;2168;53.576;9.980;2023-06-19T01:20:52;3.80;;;3.80;;
4309;SDS011;2168;53.576;9.980;2023-06-19T01:23:17;3.70;;;3.70;;
4309;SDS011;2168;53.576;9.980;2023-06-19T01:25:42;3.70;;;3.70;;
4309;SDS011;2168;53.576;9.980;2023-06-19T01:28:08;3.80;;;3.80;;
4309;SDS011;2168;53.576;9.980;2023-06-19T01:30:35;3.60;;;3.60;;
4309;SDS011;2168;53.576;9.980;2023-06-19T01:35:34;3.67;;;3.67;;
4309;SDS011;2168;53.576;9.980;2023-06-19T01:38:00;3.90;;;3.90;;
4309;SDS011;2168;53.576;9.980;2023-06-19T01:40:26;3.83;;;3.83;;
4309;SDS011;2168;53.576;9.980;2023-06-19T01:42:52;3.90;;;3.90;;
4309;SDS011;2168;53.576;9.980;2023-06-19T01:45:18;3.43;;;3.43;;
4309;SDS011;2168;53.576;9.980;2023-06-19T01:47:43;3.80;;;3.80;;
4309;SDS011;2168;53.576;9.980;2023-06-19T01:50:09;3.77;;;3.77;;
4309;SDS011;2168;53.576;9.980;2023-06-19T01:52:35;3.63;;;3.63;;
4309;SDS011;2168;53.576;9.980;2023-06-19T01:55:00;3.53;;;3.53;;
4309;SDS011;2168;53.576;9.980;2023-06-19T01:57:25;3.83;;;3.83;;
4309;SDS011;2168;53.576;9.980;2023-06-19T01:59:51;3.50;;;3.50;;
4309;SDS011;2168;53.576;9.980;2023-06-19T02:02:16;3.47;;;3.47;;
4309;SDS011;2168;53.576;9.980;2023-06-19T02:04:41;3.80;;;3.80;;
4309;SDS011;2168;53.576;9.980;2023-06-19T02:07:06;3.73;;;3.73;;
4309;SDS011;2168;53.576;9.980;2023-06-19T02:09:31;3.80;;;3.80;;
4309;SDS011;2168;53.576;9.980;2023-06-19T02:11:56;3.67;;;3.67;;
4309;SDS011;2168;53.576;9.980;2023-06-19T02:14:22;3.83;;;3.83;;
4309;SDS011;2168;53.576;9.980;2023-06-19T02:16:47;3.90;;;3.90;;
4309;SDS011;2168;53.576;9.980;2023-06-19T02:19:12;3.53;;;3.53;;
4309;SDS011;2168;53.576;9.980;2023-06-19T02:21:37;3.70;;;3.70;;
4309;SDS011;2168;53.576;9.980;2023-06-19T02:24:03;3.80;;;3.80;;
4309;SDS011;2168;53.576;9.980;2023-06-19T02:26:29;3.57;;;3.57;;
4309;SDS011;2168;53.576;9.980;2023-06-19T02:28:54;3.63;;;3.63;;
4309;SDS011;2168;53.576;9.980;2023-06-19T02:31:20;3.83;;;3.83;;
4309;SDS011;2168;53.576;9.980;2023-06-19T02:33:45;3.67;;;3.67;;
4309;SDS011;2168;53.576;9.980;2023-06-19T02:36:11;3.70;;;3.70;;
4309;SDS011;2168;53.576;9.980;2023-06-19T02:38:36;3.53;;;3.53;;
4309;SDS011;2168;53.576;9.980;2023-06-19T02:41:01;3.70;;;3.70;;
4309;SDS011;2168;53.576;9.980;2023-06-19T02:43:26;3.60;;;3.60;;
4309;SDS011;2168;53.576;9.980;2023-06-19T02:45:51;3.70;;;3.70;;
4309;SDS011;2168;53.576;9.980;2023-06-19T02:48:17;3.60;;;3.60;;
4309;SDS011;2168;53.576;9.980;2023-06-19T02:50:42;3.80;;;3.80;;
4309;SDS011;2168;53.576;9.980;2023-06-19T02:53:08;3.60;;;3.60;;
4309;SDS011;2168;53.576;9.980;2023-06-19T02:55:33;3.40;;;3.40;;
4309;SDS011;2168;53.576;9.980;2023-06-19T02:57:58;3.87;;;3.87;;
4309;SDS011;2168;53.576;9.980;2023-06-19T03:00:24;3.80;;;3.80;;
4309;SDS011;2168;53.576;9.980;2023-06-19T03:02:52;3.80;;;3.80;;
4309;SDS011;2168;53.576;9.980;2023-06-19T03:05:18;3.47;;;3.47;;
4309;SDS011;2168;53.576;9.980;2023-06-19T03:07:43;3.17;;;3.17;;
4309;SDS011;2168;53.576;9.980;2023-06-19T03:10:08;3.20;;;3.20;;
4309;SDS011;2168;53.576;9.980;2023-06-19T03:12:34;3.20;;;3.20;;
4309;SDS011;2168;53.576;9.980;2023-06-19T03:14:59;3.53;;;3.53;;
4309;SDS011;2168;53.576;9.980;2023-06-19T03:17:24;3.43;;;3.43;;
4309;SDS011;2168;53.576;9.980;2023-06-19T03:19:49;3.43;;;3.43;;
4309;SDS011;2168;53.576;9.980;2023-06-19T03:22:14;3.67;;;3.67;;
4309;SDS011;2168;53.576;9.980;2023-06-19T03:24:39;3.70;;;3.70;;
4309;SDS011;2168;53.576;9.980;2023-06-19T03:27:05;3.47;;;3.47;;
4309;SDS011;2168;53.576;9.980;2023-06-19T03:29:30;3.30;;;3.30;;
4309;SDS011;2168;53.576;9.980;2023-06-19T03:31:55;3.60;;;3.60;;
4309;SDS011;2168;53.576;9.980;2023-06-19T03:34:20;3.77;;;3.77;;
4309;SDS011;2168;53.576;9.980;2023-06-19T03:36:46;3.22;;;3.22;;
4309;SDS011;2168;53.576;9.980;2023-06-19T03:39:11;3.60;;;3.60;;
4309;SDS011;2168;53.576;9.980;2023-06-19T03:41:36;3.10;;;3.10;;
4309;SDS011;2168;53.576;9.980;2023-06-19T03:44:01;3.60;;;3.60;;
4309;SDS011;2168;53.576;9.980;2023-06-19T03:46:26;3.57;;;3.57;;
4309;SDS011;2168;53.576;9.980;2023-06-19T03:48:51;3.67;;;3.67;;
4309;SDS011;2168;53.576;9.980;2023-06-19T03:51:17;3.33;;;3.33;;
4309;SDS011;2168;53.576;9.980;2023-06-19T03:53:42;3.13;;;3.13;;
4309;SDS011;2168;53.576;9.980;2023-06-19T03:56:07;3.60;;;3.60;;
4309;SDS011;2168;53.576;9.980;2023-06-19T03:58:32;3.30;;;3.30;;
4309;SDS011;2168;53.576;9.980;2023-06-19T04:00:57;3.50;;;3.50;;
4309;SDS011;2168;53.576;9.980;2023-06-19T04:03:23;3.47;;;3.47;;
4309;SDS011;2168;53.576;9.980;2023-06-19T04:05:48;3.10;;;3.10;;
4309;SDS011;2168;53.576;9.980;2023-06-19T04:08:13;3.30;;;3.30;;
4309;SDS011;2168;53.576;9.980;2023-06-19T04:10:38;3.30;;;3.30;;
4309;SDS011;2168;53.576;9.980;2023-06-19T04:13:03;3.20;;;3.20;;
4309;SDS011;2168;53.576;9.980;2023-06-19T04:15:29;3.40;;;3.40;;
4309;SDS011;2168;53.576;9.980;2023-06-19T04:17:57;3.60;;;3.60;;
4309;SDS011;2168;53.576;9.980;2023-06-19T04:20:22;3.17;;;3.17;;
4309;SDS011;2168;53.576;9.980;2023-06-19T04:22:47;3.17;;;3.17;;
4309;SDS011;2168;53.576;9.980;2023-06-19T04:25:12;3.23;;;3.23;;
4309;SDS011;2168;53.576;9.980;2023-06-19T04:27:37;3.13;;;3.13;;
4309;SDS011;2168;53.576;9.980;2023-06-19T04:30:03;3.37;;;3.37;;
4309;SDS011;2168;53.576;9.980;2023-06-19T04:32:29;3.23;;;3.23;;
4309;SDS011;2168;53.576;9.980;2023-06-19T04:34:54;3.00;;;3.00;;
4309;SDS011;2168;53.576;9.980;2023-06-19T04:37:19;3.20;;;3.20;;
4309;SDS011;2168;53.576;9.980;2023-06-19T04:39:45;3.10;;;3.10;;
4309;SDS011;2168;53.576;9.980;2023-06-19T04:42:12;3.30;;;3.30;;
4309;SDS011;2168;53.576;9.980;2023-06-19T04:44:37;3.07;;;3.07;;
4309;SDS011;2168;53.576;9.980;2023-06-19T04:47:03;2.75;;;2.75;;
4309;SDS011;2168;53.576;9.980;2023-06-19T04:49:28;3.00;;;3.00;;
4309;SDS011;2168;53.576;9.980;2023-06-19T04:51:55;2.60;;;2.60;;
4309;SDS011;2168;53.576;9.980;2023-06-19T04:54:20;2.97;;;2.97;;
4309;SDS011;2168;53.576;9.980;2023-06-19T04:56:45;2.85;;;2.85;;
4309;SDS011;2168;53.576;9.980;2023-06-19T04:59:11;3.00;;;3.00;;
4309;SDS011;2168;53.576;9.980;2023-06-19T05:01:36;3.00;;;3.00;;
4309;SDS011;2168;53.576;9.980;2023-06-19T05:04:05;2.97;;;2.97;;
4309;SDS011;2168;53.576;9.980;2023-06-19T05:06:30;2.70;;;2.70;;
4309;SDS011;2168;53.576;9.980;2023-06-19T05:08:55;2.50;;;2.50;;
4309;SDS011;2168;53.576;9.980;2023-06-19T05:11:20;3.00;;;3.00;;
4309;SDS011;2168;53.576;9.980;2023-06-19T05:13:45;2.43;;;2.43;;
4309;SDS011;2168;53.576;9.980;2023-06-19T05:16:11;2.90;;;2.90;;
4309;SDS011;2168;53.576;9.980;2023-06-19T05:18:40;2.70;;;2.70;;
4309;SDS011;2168;53.576;9.980;2023-06-19T05:21:05;2.57;;;2.57;;
4309;SDS011;2168;53.576;9.980;2023-06-19T05:23:30;2.70;;;2.70;;
4309;SDS011;2168;53.576;9.980;2023-06-19T05:25:55;2.80;;;2.80;;
4309;SDS011;2168;53.576;9.980;2023-06-19T05:28:20;2.87;;;2.87;;
4309;SDS011;2168;53.576;9.980;2023-06-19T05:30:46;2.90;;;2.90;;
4309;SDS011;2168;53.576;9.980;2023-06-19T05:33:11;2.80;;;2.80;;
4309;SDS011;2168;53.576;9.980;2023-06-19T05:35:40;2.87;;;2.87;;
4309;SDS011;2168;53.576;9.980;2023-06-19T05:38:05;2.80;;;2.80;;
4309;SDS011;2168;53.576;9.980;2023-06-19T05:40:30;2.60;;;2.60;;
4309;SDS011;2168;53.576;9.980;2023-06-19T05:42:56;2.63;;;2.63;;
4309;SDS011;2168;53.576;9.980;2023-06-19T05:45:21;2.90;;;2.90;;
4309;SDS011;2168;53.576;9.980;2023-06-19T05:47:46;2.90;;;2.90;;
4309;SDS011;2168;53.576;9.980;2023-06-19T05:50:11;3.10;;;3.10;;
4309;SDS011;2168;53.576;9.980;2023-06-19T05:52:37;2.83;;;2.83;;
4309;SDS011;2168;53.576;9.980;2023-06-19T05:55:06;2.57;;;2.57;;
4309;SDS011;2168;53.576;9.980;2023-06-19T05:57:32;2.97;;;2.97;;
4309;SDS011;2168;53.576;9.980;2023-06-19T05:59:57;2.60;;;2.60;;
4309;SDS011;2168;53.576;9.980;2023-06-19T06:02:22;2.57;;;2.57;;
4309;SDS011;2168;53.576;9.980;2023-06-19T06:04:47;2.37;;;2.37;;
4309;SDS011;2168;53.576;9.980;2023-06-19T06:07:12;2.80;;;2.80;;
4309;SDS011;2168;53.576;9.980;2023-06-19T06:09:38;2.67;;;2.67;;
4309;SDS011;2168;53.576;9.980;2023-06-19T06:12:04;2.90;;;2.90;;
4309;SDS011;2168;53.576;9.980;2023-06-19T06:14:29;2.90;;;2.90;;
4309;SDS011;2168;53.576;9.980;2023-06-19T06:16:54;2.50;;;2.50;;
4309;SDS011;2168;53.576;9.980;2023-06-19T06:19:20;2.50;;;2.50;;
4309;SDS011;2168;53.576;9.980;2023-06-19T06:21:45;2.77;;;2.77;;
4309;SDS011;2168;53.576;9.980;2023-06-19T06:24:10;2.20;;;2.20;;
4309;SDS011;2168;53.576;9.980;2023-06-19T06:26:36;2.50;;;2.50;;
4309;SDS011;2168;53.576;9.980;2023-06-19T06:29:01;2.63;;;2.63;;
4309;SDS011;2168;53.576;9.980;2023-06-19T06:31:27;2.40;;;2.40;;
4309;SDS011;2168;53.576;9.980;2023-06-19T06:33:52;2.50;;;2.50;;
4309;SDS011;2168;53.576;9.980;2023-06-19T06:36:17;2.43;;;2.43;;
4309;SDS011;2168;53.576;9.980;2023-06-19T06:38:42;2.27;;;2.27;;
4309;SDS011;2168;53.576;9.980;2023-06-19T06:41:08;2.77;;;2.77;;
4309;SDS011;2168;53.576;9.980;2023-06-19T06:43:33;2.70;;;2.70;;
4309;SDS011;2168;53.576;9.980;2023-06-19T06:45:58;2.60;;;2.60;;
4309;SDS011;2168;53.576;9.980;2023-06-19T06:48:24;2.30;;;2.30;;
4309;SDS011;2168;53.576;9.980;2023-06-19T06:50:49;2.53;;;2.53;;
4309;SDS011;2168;53.576;9.980;2023-06-19T06:53:14;2.77;;;2.77;;
4309;SDS011;2168;53.576;9.980;2023-06-19T06:55:39;2.37;;;2.37;;
4309;SDS011;2168;53.576;9.980;2023-06-19T06:58:05;2.50;;;2.50;;
4309;SDS011;2168;53.576;9.980;2023-06-19T07:00:30;2.50;;;2.50;;
4309;SDS011;2168;53.576;9.980;2023-06-19T07:02:56;2.70;;;2.70;;
4309;SDS011;2168;53.576;9.980;2023-06-19T07:05:21;2.40;;;2.40;;
4309;SDS011;2168;53.576;9.980;2023-06-19T07:07:46;2.40;;;2.40;;
4309;SDS011;2168;53.576;9.980;2023-06-19T07:10:11;2.50;;;2.50;;
4309;SDS011;2168;53.576;9.980;2023-06-19T07:12:44;2.50;;;2.50;;
4309;SDS011;2168;53.576;9.980;2023-06-19T07:15:09;2.73;;;2.73;;
4309;SDS011;2168;53.576;9.980;2023-06-19T07:17:34;2.50;;;2.50;;
4309;SDS011;2168;53.576;9.980;2023-06-19T07:19:59;2.60;;;2.60;;
4309;SDS011;2168;53.576;9.980;2023-06-19T07:22:24;2.50;;;2.50;;
4309;SDS011;2168;53.576;9.980;2023-06-19T07:24:49;2.57;;;2.57;;
4309;SDS011;2168;53.576;9.980;2023-06-19T07:27:15;2.40;;;2.40;;
4309;SDS011;2168;53.576;9.980;2023-06-19T07:29:40;2.47;;;2.47;;
4309;SDS011;2168;53.576;9.980;2023-06-19T07:32:05;2.90;;;2.90;;
4309;SDS011;2168;53.576;9.980;2023-06-19T07:34:30;2.30;;;2.30;;
4309;SDS011;2168;53.576;9.980;2023-06-19T07:36:56;2.40;;;2.40;;
4309;SDS011;2168;53.576;9.980;2023-06-19T07:39:21;2.30;;;2.30;;
4309;SDS011;2168;53.576;9.980;2023-06-19T07:41:46;2.83;;;2.83;;
4309;SDS011;2168;53.576;9.980;2023-06-19T07:44:11;3.00;;;3.00;;
4309;SDS011;2168;53.576;9.980;2023-06-19T07:46:36;2.47;;;2.47;;
4309;SDS011;2168;53.576;9.980;2023-06-19T07:49:02;2.60;;;2.60;;
4309;SDS011;2168;53.576;9.980;2023-06-19T07:51:27;2.73;;;2.73;;
4309;SDS011;2168;53.576;9.980;2023-06-19T07:53:52;2.90;;;2.90;;
4309;SDS011;2168;53.576;9.980;2023-06-19T07:56:17;2.60;;;2.60;;
4309;SDS011;2168;53.576;9.980;2023-06-19T07:58:42;2.60;;;2.60;;
4309;SDS011;2168;53.576;9.980;2023-06-19T08:01:08;2.80;;;2.80;;
4309;SDS011;2168;53.576;9.980;2023-06-19T08:03:33;2.67;;;2.67;;
4309;SDS011;2168;53.576;9.980;2023-06-19T08:05:58;2.80;;;2.80;;
4309;SDS011;2168;53.576;9.980;2023-06-19T08:08:23;3.40;;;3.40;;
4309;SDS011;2168;53.576;9.980;2023-06-19T08:10:48;3.57;;;3.57;;
4309;SDS011;2168;53.576;9.980;2023-06-19T08:13:13;3.40;;;3.40;;
4309;SDS011;2168;53.576;9.980;2023-06-19T08:15:39;3.60;;;3.60;;
4309;SDS011;2168;53.576;9.980;2023-06-19T08:18:04;3.20;;;3.20;;
4309;SDS011;2168;53.576;9.980;2023-06-19T08:20:29;3.10;;;3.10;;
4309;SDS011;2168;53.576;9.980;2023-06-19T08:22:54;3.30;;;3.30;;
4309;SDS011;2168;53.576;9.980;2023-06-19T08:25:21;3.20;;;3.20;;
4309;SDS011;2168;53.576;9.980;2023-06-19T08:27:46;2.80;;;2.80;;
4309;SDS011;2168;53.576;9.980;2023-06-19T08:30:11;2.47;;;2.47;;
4309;SDS011;2168;53.576;9.980;2023-06-19T08:32:36;2.60;;;2.60;;
4309;SDS011;2168;53.576;9.980;2023-06-19T08:35:02;2.30;;;2.30;;
4309;SDS011;2168;53.576;9.980;2023-06-19T08:37:28;2.90;;;2.90;;
4309;SDS011;2168;53.576;9.980;2023-06-19T08:39:53;2.60;;;2.60;;
4309;SDS011;2168;53.576;9.980;2023-06-19T08:42:20;2.47;;;2.47;;
4309;SDS011;2168;53.576;9.980;2023-06-19T08:44:45;3.00;;;3.00;;
4309;SDS011;2168;53.576;9.980;2023-06-19T08:47:10;2.90;;;2.90;;
4309;SDS011;2168;53.576;9.980;2023-06-19T08:49:36;3.17;;;3.17;;
4309;SDS011;2168;53.576;9.980;2023-06-19T08:52:01;2.53;;;2.53;;
4309;SDS011;2168;53.576;9.980;2023-06-19T08:54:27;3.23;;;3.23;;
4309;SDS011;2168;53.576;9.980;2023-06-19T08:56:52;2.80;;;2.80;;
4309;SDS011;2168;53.576;9.980;2023-06-19T08:59:19;2.73;;;2.73;;
4309;SDS011;2168;53.576;9.980;2023-06-19T09:01:52;2.87;;;2.87;;
4309;SDS011;2168;53.576;9.980;2023-06-19T09:04:26;3.30;;;3.30;;
4309;SDS011;2168;53.576;9.980;2023-06-19T09:06:53;3.10;;;3.10;;
4309;SDS011;2168;53.576;9.980;2023-06-19T09:09:20;2.90;;;2.90;;
4309;SDS011;2168;53.576;9.980;2023-06-19T09:14:36;2.80;;;2.80;;
4309;SDS011;2168;53.576;9.980;2023-06-19T09:17:02;3.20;;;3.20;;
4309;SDS011;2168;53.576;9.980;2023-06-19T09:19:27;3.03;;;3.03;;
4309;SDS011;2168;53.576;9.980;2023-06-19T09:21:52;2.80;;;2.80;;
4309;SDS011;2168;53.576;9.980;2023-06-19T09:24:18;3.40;;;3.40;;
4309;SDS011;2168;53.576;9.980;2023-06-19T09:26:43;3.37;;;3.37;;
4309;SDS011;2168;53.576;9.980;2023-06-19T09:29:14;3.20;;;3.20;;
4309;SDS011;2168;53.576;9.980;2023-06-19T09:31:44;3.43;;;3.43;;
4309;SDS011;2168;53.576;9.980;2023-06-19T09:34:09;3.67;;;3.67;;
4309;SDS011;2168;53.576;9.980;2023-06-19T09:36:34;3.20;;;3.20;;
4309;SDS011;2168;53.576;9.980;2023-06-19T09:39:00;3.00;;;3.00;;
4309;SDS011;2168;53.576;9.980;2023-06-19T09:41:26;3.07;;;3.07;;
4309;SDS011;2168;53.576;9.980;2023-06-19T09:43:54;3.43;;;3.43;;
4309;SDS011;2168;53.576;9.980;2023-06-19T09:46:22;3.20;;;3.20;;
4309;SDS011;2168;53.576;9.980;2023-06-19T09:48:50;3.10;;;3.10;;
4309;SDS011;2168;53.576;9.980;2023-06-19T09:51:20;3.07;;;3.07;;
4309;SDS011;2168;53.576;9.980;2023-06-19T09:53:46;3.10;;;3.10;;
4309;SDS011;2168;53.576;9.980;2023-06-19T09:56:12;3.17;;;3.17;;
4309;SDS011;2168;53.576;9.980;2023-06-19T09:58:37;3.50;;;3.50;;
4309;SDS011;2168;53.576;9.980;2023-06-19T10:01:03;3.20;;;3.20;;
4309;SDS011;2168;53.576;9.980;2023-06-19T10:03:29;2.83;;;2.83;;
4309;SDS011;2168;53.576;9.980;2023-06-19T10:05:58;3.20;;;3.20;;
4309;SDS011;2168;53.576;9.980;2023-06-19T10:08:29;3.23;;;3.23;;
4309;SDS011;2168;53.576;9.980;2023-06-19T10:10:55;2.93;;;2.93;;
4309;SDS011;2168;53.576;9.980;2023-06-19T10:13:20;3.43;;;3.43;;
4309;SDS011;2168;53.576;9.980;2023-06-19T10:15:46;3.30;;;3.30;;
4309;SDS011;2168;53.576;9.980;2023-06-19T10:18:15;3.47;;;3.47;;
4309;SDS011;2168;53.576;9.980;2023-06-19T10:20:41;3.27;;;3.27;;
4309;SDS011;2168;53.576;9.980;2023-06-19T10:23:07;3.10;;;3.10;;
4309;SDS011;2168;53.576;9.980;2023-06-19T10:25:33;3.23;;;3.23;;
4309;SDS011;2168;53.576;9.980;2023-06-19T10:27:59;2.83;;;2.83;;
4309;SDS011;2168;53.576;9.980;2023-06-19T10:30:24;3.10;;;3.10;;
4309;SDS011;2168;53.576;9.980;2023-06-19T10:32:50;3.27;;;3.27;;
4309;SDS011;2168;53.576;9.980;2023-06-19T10:35:16;3.13;;;3.13;;
4309;SDS011;2168;53.576;9.980;2023-06-19T10:37:42;3.70;;;3.70;;
4309;SDS011;2168;53.576;9.980;2023-06-19T10:40:07;3.40;;;3.40;;
4309;SDS011;2168;53.576;9.980;2023-06-19T10:42:34;3.40;;;3.40;;
4309;SDS011;2168;53.576;9.980;2023-06-19T10:45:03;3.40;;;3.40;;
4309;SDS011;2168;53.576;9.980;2023-06-19T10:47:29;3.40;;;3.40;;
4309;SDS011;2168;53.576;9.980;2023-06-19T10:49:54;3.73;;;3.73;;
4309;SDS011;2168;53.576;9.980;2023-06-19T10:52:19;3.60;;;3.60;;
4309;SDS011;2168;53.576;9.980;2023-06-19T10:54:45;3.50;;;3.50;;
4309;SDS011;2168;53.576;9.980;2023-06-19T10:57:10;3.30;;;3.30;;
4309;SDS011;2168;53.576;9.980;2023-06-19T10:59:35;3.80;;;3.80;;
4309;SDS011;2168;53.576;9.980;2023-06-19T11:02:00;3.77;;;3.77;;
4309;SDS011;2168;53.576;9.980;2023-06-19T11:04:26;3.80;;;3.80;;
4309;SDS011;2168;53.576;9.980;2023-06-19T11:06:51;3.40;;;3.40;;
4309;SDS011;2168;53.576;9.980;2023-06-19T11:09:16;3.40;;;3.40;;
4309;SDS011;2168;53.576;9.980;2023-06-19T11:11:43;3.10;;;3.10;;
4309;SDS011;2168;53.576;9.980;2023-06-19T11:14:08;3.60;;;3.60;;
4309;SDS011;2168;53.576;9.980;2023-06-19T11:16:34;3.50;;;3.50;;
4309;SDS011;2168;53.576;9.980;2023-06-19T11:19:00;3.47;;;3.47;;
4309;SDS011;2168;53.576;9.980;2023-06-19T11:21:35;3.73;;;3.73;;
4309;SDS011;2168;53.576;9.980;2023-06-19T11:24:04;3.43;;;3.43;;
4309;SDS011;2168;53.576;9.980;2023-06-19T11:26:34;3.40;;;3.40;;
4309;SDS011;2168;53.576;9.980;2023-06-19T11:28:59;3.43;;;3.43;;
4309;SDS011;2168;53.576;9.980;2023-06-19T11:31:25;3.53;;;3.53;;
4309;SDS011;2168;53.576;9.980;2023-06-19T11:33:58;3.73;;;3.73;;
4309;SDS011;2168;53.576;9.980;2023-06-19T11:36:23;3.60;;;3.60;;
4309;SDS011;2168;53.576;9.980;2023-06-19T11:38:49;3.80;;;3.80;;
4309;SDS011;2168;53.576;9.980;2023-06-19T11:41:24;3.40;;;3.40;;
4309;SDS011;2168;53.576;9.980;2023-06-19T11:43:49;4.00;;;4.00;;
4309;SDS011;2168;53.576;9.980;2023-06-19T11:46:15;3.80;;;3.80;;
4309;SDS011;2168;53.576;9.980;2023-06-19T11:48:41;4.07;;;4.07;;
4309;SDS011;2168;53.576;9.980;2023-06-19T11:51:07;4.17;;;4.17;;
4309;SDS011;2168;53.576;9.980;2023-06-19T11:53:33;3.90;;;3.90;;
4309;SDS011;2168;53.576;9.980;2023-06-19T11:55:58;3.87;;;3.87;;
4309;SDS011;2168;53.576;9.980;2023-06-19T11:58:23;3.73;;;3.73;;
4309;SDS011;2168;53.576;9.980;2023-06-19T12:00:48;3.80;;;3.80;;
4309;SDS011;2168;53.576;9.980;2023-06-19T12:03:14;3.80;;;3.80;;
4309;SDS011;2168;53.576;9.980;2023-06-19T12:05:39;4.03;;;4.03;;
4309;SDS011;2168;53.576;9.980;2023-06-19T12:08:04;3.80;;;3.80;;
4309;SDS011;2168;53.576;9.980;2023-06-19T12:10:30;3.90;;;3.90;;
4309;SDS011;2168;53.576;9.980;2023-06-19T12:12:55;4.10;;;4.10;;
4309;SDS011;2168;53.576;9.980;2023-06-19T12:15:21;4.27;;;4.27;;
4309;SDS011;2168;53.576;9.980;2023-06-19T12:17:46;3.90;;;3.90;;
4309;SDS011;2168;53.576;9.980;2023-06-19T12:20:11;4.13;;;4.13;;
4309;SDS011;2168;53.576;9.980;2023-06-19T12:22:38;3.90;;;3.90;;
4309;SDS011;2168;53.576;9.980;2023-06-19T12:25:03;4.20;;;4.20;;
4309;SDS011;2168;53.576;9.980;2023-06-19T12:27:29;3.90;;;3.90;;
4309;SDS011;2168;53.576;9.980;2023-06-19T12:29:54;4.07;;;4.07;;
4309;SDS011;2168;53.576;9.980;2023-06-19T12:32:19;3.80;;;3.80;;
4309;SDS011;2168;53.576;9.980;2023-06-19T12:34:46;4.27;;;4.27;;
4309;SDS011;2168;53.576;9.980;2023-06-19T12:37:14;4.00;;;4.00;;
4309;SDS011;2168;53.576;9.980;2023-06-19T12:39:40;3.67;;;3.67;;
4309;SDS011;2168;53.576;9.980;2023-06-19T12:42:06;3.90;;;3.90;;
4309;SDS011;2168;53.576;9.980;2023-06-19T12:44:31;3.53;;;3.53;;
4309;SDS011;2168;53.576;9.980;2023-06-19T12:46:56;3.70;;;3.70;;
4309;SDS011;2168;53.576;9.980;2023-06-19T12:49:23;3.33;;;3.33;;
4309;SDS011;2168;53.576;9.980;2023-06-19T12:51:48;3.50;;;3.50;;
4309;SDS011;2168;53.576;9.980;2023-06-19T12:54:16;3.40;;;3.40;;
4309;SDS011;2168;53.576;9.980;2023-06-19T12:56:41;3.50;;;3.50;;
4309;SDS011;2168;53.576;9.980;2023-06-19T12:59:06;3.87;;;3.87;;
4309;SDS011;2168;53.576;9.980;2023-06-19T13:01:31;3.70;;;3.70;;
4309;SDS011;2168;53.576;9.980;2023-06-19T13:03:56;3.50;;;3.50;;
4309;SDS011;2168;53.576;9.980;2023-06-19T13:06:22;3.70;;;3.70;;
4309;SDS011;2168;53.576;9.980;2023-06-19T13:08:47;4.13;;;4.13;;
4309;SDS011;2168;53.576;9.980;2023-06-19T13:11:12;4.13;;;4.13;;
4309;SDS011;2168;53.576;9.980;2023-06-19T13:13:37;3.90;;;3.90;;
4309;SDS011;2168;53.576;9.980;2023-06-19T13:16:02;3.60;;;3.60;;
4309;SDS011;2168;53.576;9.980;2023-06-19T13:18:28;3.63;;;3.63;;
4309;SDS011;2168;53.576;9.980;2023-06-19T13:20:53;3.67;;;3.67;;
4309;SDS011;2168;53.576;9.980;2023-06-19T13:23:18;4.03;;;4.03;;
4309;SDS011;2168;53.576;9.980;2023-06-19T13:25:43;3.97;;;3.97;;
4309;SDS011;2168;53.576;9.980;2023-06-19T13:28:08;3.50;;;3.50;;
4309;SDS011;2168;53.576;9.980;2023-06-19T13:30:33;3.93;;;3.93;;
4309;SDS011;2168;53.576;9.980;2023-06-19T13:32:59;3.90;;;3.90;;
4309;SDS011;2168;53.576;9.980;2023-06-19T13:35:24;3.43;;;3.43;;
4309;SDS011;2168;53.576;9.980;2023-06-19T13:37:49;3.43;;;3.43;;
4309;SDS011;2168;53.576;9.980;2023-06-19T13:40:14;3.83;;;3.83;;
4309;SDS011;2168;53.576;9.980;2023-06-19T13:42:39;4.10;;;4.10;;
4309;SDS011;2168;53.576;9.980;2023-06-19T13:45:05;4.10;;;4.10;;
4309;SDS011;2168;53.576;9.980;2023-06-19T13:47:30;3.97;;;3.97;;
4309;SDS011;2168;53.576;9.980;2023-06-19T13:49:55;4.20;;;4.20;;
4309;SDS011;2168;53.576;9.980;2023-06-19T13:52:20;3.97;;;3.97;;
4309;SDS011;2168;53.576;9.980;2023-06-19T13:54:46;4.00;;;4.00;;
4309;SDS011;2168;53.576;9.980;2023-06-19T13:57:11;3.90;;;3.90;;
4309;SDS011;2168;53.576;9.980;2023-06-19T13:59:36;3.80;;;3.80;;
4309;SDS011;2168;53.576;9.980;2023-06-19T14:02:01;4.07;;;4.07;;
4309;SDS011;2168;53.576;9.980;2023-06-19T14:04:26;3.70;;;3.70;;
4309;SDS011;2168;53.576;9.980;2023-06-19T14:06:51;4.00;;;4.00;;
4309;SDS011;2168;53.576;9.980;2023-06-19T14:09:17;4.00;;;4.00;;
4309;SDS011;2168;53.576;9.980;2023-06-19T14:11:42;3.63;;;3.63;;
4309;SDS011;2168;53.576;9.980;2023-06-19T14:14:09;3.70;;;3.70;;
4309;SDS011;2168;53.576;9.980;2023-06-19T14:16:34;3.80;;;3.80;;
4309;SDS011;2168;53.576;9.980;2023-06-19T14:18:59;3.87;;;3.87;;
4309;SDS011;2168;53.576;9.980;2023-06-19T14:21:24;4.07;;;4.07;;
4309;SDS011;2168;53.576;9.980;2023-06-19T14:23:49;3.70;;;3.70;;
4309;SDS011;2168;53.576;9.980;2023-06-19T14:26:15;3.87;;;3.87;;
4309;SDS011;2168;53.576;9.980;2023-06-19T14:28:40;3.70;;;3.70;;
4309;SDS011;2168;53.576;9.980;2023-06-19T14:31:05;4.00;;;4.00;;
4309;SDS011;2168;53.576;9.980;2023-06-19T14:33:30;4.00;;;4.00;;
4309;SDS011;2168;53.576;9.980;2023-06-19T14:35:57;3.70;;;3.70;;
4309;SDS011;2168;53.576;9.980;2023-06-19T14:38:24;3.93;;;3.93;;
4309;SDS011;2168;53.576;9.980;2023-06-19T14:40:52;3.87;;;3.87;;
4309;SDS011;2168;53.576;9.980;2023-06-19T14:43:17;4.00;;;4.00;;
4309;SDS011;2168;53.576;9.980;2023-06-19T14:45:43;3.70;;;3.70;;
4309;SDS011;2168;53.576;9.980;2023-06-19T14:48:08;3.40;;;3.40;;
4309;SDS011;2168;53.576;9.980;2023-06-19T14:50:33;3.13;;;3.13;;
4309;SDS011;2168;53.576;9.980;2023-06-19T14:52:59;3.70;;;3.70;;
4309;SDS011;2168;53.576;9.980;2023-06-19T14:55:24;3.60;;;3.60;;
4309;SDS011;2168;53.576;9.980;2023-06-19T14:57:49;3.80;;;3.80;;
4309;SDS011;2168;53.576;9.980;2023-06-19T15:00:14;4.07;;;4.07;;
4309;SDS011;2168;53.576;9.980;2023-06-19T15:02:39;3.83;;;3.83;;
4309;SDS011;2168;53.576;9.980;2023-06-19T15:05:05;3.73;;;3.73;;
4309;SDS011;2168;53.576;9.980;2023-06-19T15:07:30;3.63;;;3.63;;
4309;SDS011;2168;53.576;9.980;2023-06-19T15:09:55;3.50;;;3.50;;
4309;SDS011;2168;53.576;9.980;2023-06-19T15:12:21;3.70;;;3.70;;